createdAt,value
2017-11-19T00:00:40.339Z,5.10
2017-11-19T00:03:07.894Z,5.10
2017-11-19T00:05:35.338Z,5.10
2017-11-19T00:08:02.796Z,5.20
2017-11-19T00:10:30.240Z,5.20
2017-11-19T00:12:57.696Z,5.20
2017-11-19T00:15:25.147Z,5.20
2017-11-19T00:17:52.591Z,5.20
2017-11-19T00:20:20.095Z,5.20
2017-11-19T00:22:47.650Z,5.00
2017-11-19T00:25:15.094Z,5.00
2017-11-19T00:27:42.541Z,5.10
2017-11-19T00:30:09.996Z,5.10
2017-11-19T00:32:37.478Z,5.10
2017-11-19T00:35:04.940Z,5.10
2017-11-19T00:37:32.391Z,5.00
2017-11-19T00:39:59.835Z,5.00
2017-11-19T00:42:27.306Z,4.90
2017-11-19T00:44:54.859Z,4.80
2017-11-19T00:47:22.427Z,4.80
2017-11-19T00:49:49.864Z,4.80
2017-11-19T00:52:17.307Z,4.70
2017-11-19T00:54:44.759Z,4.70
2017-11-19T00:57:12.199Z,4.70
2017-11-19T00:59:39.654Z,4.70
2017-11-19T01:02:07.097Z,4.60
2017-11-19T01:04:35.335Z,4.70
2017-11-19T01:07:02.780Z,4.70
2017-11-19T01:09:30.238Z,4.70
2017-11-19T01:11:57.682Z,4.60
2017-11-19T01:14:25.139Z,4.60
2017-11-19T01:16:52.569Z,4.60
2017-11-19T01:19:20.019Z,4.60
2017-11-19T01:21:48.226Z,4.50
2017-11-19T01:24:15.707Z,4.50
2017-11-19T01:26:43.146Z,4.50
2017-11-19T01:29:10.595Z,4.60
2017-11-19T01:31:38.043Z,4.50
2017-11-19T01:34:05.491Z,4.60
2017-11-19T01:36:32.935Z,4.60
2017-11-19T01:39:01.162Z,4.60
2017-11-19T01:41:28.616Z,4.60
2017-11-19T01:43:56.062Z,4.60
2017-11-19T01:46:23.507Z,4.60
2017-11-19T01:48:51.095Z,4.70
2017-11-19T01:51:18.542Z,5.00
2017-11-19T01:53:45.990Z,5.10
2017-11-19T01:56:13.435Z,5.30
2017-11-19T01:58:40.958Z,5.40
2017-11-19T02:01:09.173Z,5.40
2017-11-19T02:03:36.621Z,5.40
2017-11-19T02:06:04.078Z,5.40
2017-11-19T02:08:31.557Z,5.40
2017-11-19T02:10:59.017Z,5.60
2017-11-19T02:13:26.455Z,5.60
2017-11-19T02:15:53.904Z,5.50
2017-11-19T02:18:21.390Z,5.50
2017-11-19T02:20:48.839Z,5.50
2017-11-19T02:23:16.283Z,5.50
2017-11-19T02:25:43.777Z,5.40
2017-11-19T02:28:11.206Z,5.40
2017-11-19T02:30:38.660Z,5.40
2017-11-19T02:33:06.102Z,5.30
2017-11-19T02:35:33.569Z,5.40
2017-11-19T02:38:01.047Z,5.50
2017-11-19T02:40:28.498Z,5.50
2017-11-19T02:42:55.944Z,5.50
2017-11-19T02:45:23.398Z,5.50
2017-11-19T02:47:50.849Z,5.50
2017-11-19T02:50:18.299Z,5.50
2017-11-19T02:52:45.745Z,5.50
2017-11-19T02:55:13.241Z,5.40
2017-11-19T02:57:40.698Z,5.40
2017-11-19T03:00:08.151Z,5.40
2017-11-19T03:02:35.595Z,5.40
2017-11-19T03:05:03.047Z,5.50
2017-11-19T03:07:30.495Z,5.50
2017-11-19T03:09:57.951Z,5.50
2017-11-19T03:12:25.391Z,5.40
2017-11-19T03:14:52.895Z,5.40
2017-11-19T03:17:20.334Z,5.20
2017-11-19T03:19:47.807Z,5.20
2017-11-19T03:22:15.246Z,5.10
2017-11-19T03:24:42.695Z,4.90
2017-11-19T03:27:10.144Z,4.90
2017-11-19T03:29:37.582Z,5.00
2017-11-19T03:32:05.908Z,5.10
2017-11-19T03:34:33.351Z,5.00
2017-11-19T03:37:00.807Z,5.10
2017-11-19T03:39:28.256Z,5.10
2017-11-19T03:41:55.706Z,5.10
2017-11-19T03:44:23.140Z,4.90
2017-11-19T03:46:50.652Z,5.00
2017-11-19T03:49:18.086Z,5.10
2017-11-19T03:51:45.568Z,5.10
2017-11-19T03:54:13.007Z,5.10
2017-11-19T03:56:40.466Z,5.10
2017-11-19T03:59:07.903Z,5.10
2017-11-19T04:01:35.354Z,5.10
2017-11-19T04:04:02.796Z,5.10
2017-11-19T04:06:30.249Z,5.00
2017-11-19T04:08:58.462Z,4.90
2017-11-19T04:11:26.030Z,4.80
2017-11-19T04:13:53.469Z,4.90
2017-11-19T04:16:20.921Z,4.80
2017-11-19T04:18:48.361Z,5.00
2017-11-19T04:21:15.820Z,5.00
2017-11-19T04:23:43.258Z,5.00
2017-11-19T04:26:11.490Z,5.10
2017-11-19T04:28:38.933Z,5.10
2017-11-19T04:31:06.404Z,4.90
2017-11-19T04:33:33.856Z,4.90
2017-11-19T04:36:01.303Z,4.90
2017-11-19T04:38:28.758Z,4.90
2017-11-19T04:40:56.693Z,4.90
2017-11-19T04:43:24.146Z,4.90
2017-11-19T04:45:52.362Z,4.90
2017-11-19T04:48:19.807Z,4.90
2017-11-19T04:50:47.258Z,4.90
2017-11-19T04:53:14.737Z,5.00
2017-11-19T04:55:42.187Z,5.00
2017-11-19T04:58:09.638Z,5.00
2017-11-19T05:00:37.115Z,5.00
2017-11-19T05:03:04.562Z,4.90
2017-11-19T05:05:32.007Z,5.00
2017-11-19T05:07:59.481Z,5.00
2017-11-19T05:10:27.038Z,5.00
2017-11-19T05:12:54.490Z,5.00
2017-11-19T05:15:21.955Z,5.00
2017-11-19T05:17:49.405Z,5.10
2017-11-19T05:20:16.868Z,5.10
2017-11-19T05:22:44.327Z,5.00
2017-11-19T05:25:11.766Z,5.10
2017-11-19T05:27:39.216Z,5.00
2017-11-19T05:30:06.660Z,5.00
2017-11-19T05:32:34.110Z,5.00
2017-11-19T05:35:01.612Z,5.00
2017-11-19T05:37:29.083Z,5.00
2017-11-19T05:39:56.626Z,5.00
2017-11-19T05:42:24.066Z,5.00
2017-11-19T05:44:51.515Z,5.00
2017-11-19T05:47:18.995Z,5.00
2017-11-19T05:49:46.442Z,5.10
2017-11-19T05:52:13.891Z,5.10
2017-11-19T05:54:41.342Z,5.10
2017-11-19T05:57:08.791Z,5.10
2017-11-19T05:59:36.246Z,5.10
2017-11-19T06:02:03.690Z,5.10
2017-11-19T06:04:31.183Z,5.10
2017-11-19T06:06:58.632Z,5.10
2017-11-19T06:09:26.088Z,5.10
2017-11-19T06:11:53.531Z,5.10
2017-11-19T06:14:20.987Z,5.00
2017-11-19T06:16:48.426Z,5.00
2017-11-19T06:19:15.878Z,5.00
2017-11-19T06:21:44.104Z,4.80
2017-11-19T06:24:11.555Z,4.80
2017-11-19T06:26:39.002Z,4.80
2017-11-19T06:29:06.454Z,4.80
2017-11-19T06:31:33.900Z,4.70
2017-11-19T06:34:01.359Z,4.30
2017-11-19T06:36:28.795Z,4.00
2017-11-19T06:38:56.304Z,3.90
2017-11-19T06:41:23.745Z,4.00
2017-11-19T06:43:51.202Z,4.10
2017-11-19T06:46:18.654Z,4.10
2017-11-19T06:48:46.234Z,4.10
2017-11-19T06:51:13.683Z,4.10
2017-11-19T06:53:41.127Z,4.10
2017-11-19T06:56:08.587Z,4.10
2017-11-19T06:58:36.062Z,4.10
2017-11-19T07:01:03.615Z,4.10
2017-11-19T07:03:31.058Z,4.10
2017-11-19T07:05:58.514Z,4.10
2017-11-19T07:08:25.959Z,4.10
2017-11-19T07:10:53.445Z,4.10
2017-11-19T07:13:20.888Z,4.10
2017-11-19T07:15:48.342Z,4.10
2017-11-19T07:18:15.811Z,4.00
2017-11-19T07:20:43.257Z,3.90
2017-11-19T07:23:10.722Z,3.80
2017-11-19T07:25:38.175Z,3.80
2017-11-19T07:28:05.621Z,3.60
2017-11-19T07:30:33.079Z,3.70
2017-11-19T07:33:00.551Z,3.60
2017-11-19T07:35:27.999Z,3.70
2017-11-19T07:37:55.446Z,3.80
2017-11-19T07:40:22.899Z,4.00
2017-11-19T07:42:50.346Z,4.20
2017-11-19T07:45:17.791Z,4.30
2017-11-19T07:47:45.233Z,4.30
2017-11-19T07:50:13.463Z,4.30
2017-11-19T07:52:40.903Z,4.30
2017-11-19T07:55:08.367Z,4.30
2017-11-19T07:57:35.834Z,4.30
2017-11-19T08:00:03.296Z,4.30
2017-11-19T08:02:30.835Z,4.40
2017-11-19T08:04:58.291Z,4.50
2017-11-19T08:07:25.739Z,4.50
2017-11-19T08:09:53.227Z,4.60
2017-11-19T08:12:20.687Z,4.60
2017-11-19T08:14:48.135Z,4.60
2017-11-19T08:17:15.694Z,4.70
2017-11-19T08:19:43.139Z,4.70
2017-11-19T08:22:10.608Z,4.60
2017-11-19T08:24:38.067Z,4.60
2017-11-19T08:27:05.502Z,4.60
2017-11-19T08:29:32.968Z,4.60
2017-11-19T08:32:00.530Z,4.60
2017-11-19T08:34:27.997Z,4.80
2017-11-19T08:36:55.446Z,5.00
2017-11-19T08:39:22.904Z,5.20
2017-11-19T08:41:50.355Z,5.40
2017-11-19T08:44:17.799Z,5.50
2017-11-19T08:46:45.247Z,5.50
2017-11-19T08:49:12.729Z,5.50
2017-11-19T08:51:40.174Z,5.40
2017-11-19T08:54:07.620Z,5.40
2017-11-19T08:56:35.073Z,5.40
2017-11-19T08:59:02.528Z,5.30
2017-11-19T09:01:30.012Z,5.30
2017-11-19T09:03:57.473Z,5.40
2017-11-19T09:06:24.919Z,5.60
2017-11-19T09:08:52.358Z,5.60
2017-11-19T09:11:19.815Z,5.70
2017-11-19T09:13:47.254Z,5.60
2017-11-19T09:16:14.750Z,5.60
2017-11-19T09:18:42.310Z,5.40
2017-11-19T09:21:09.868Z,5.30
2017-11-19T09:23:37.319Z,5.10
2017-11-19T09:26:04.766Z,5.00
2017-11-19T09:28:32.210Z,5.00
2017-11-19T09:30:59.650Z,4.80
2017-11-19T09:33:27.102Z,4.90
2017-11-19T09:35:54.542Z,4.80
2017-11-19T09:38:22.758Z,4.80
2017-11-19T09:40:50.238Z,4.80
2017-11-19T09:43:17.691Z,4.90
2017-11-19T09:45:45.140Z,5.00
2017-11-19T09:48:12.589Z,5.10
2017-11-19T09:50:40.028Z,5.30
2017-11-19T09:53:07.522Z,5.60
2017-11-19T09:55:34.966Z,5.80
2017-11-19T09:58:02.442Z,6.00
2017-11-19T10:00:29.997Z,6.10
2017-11-19T10:02:57.447Z,6.10
2017-11-19T10:05:24.891Z,5.90
2017-11-19T10:07:52.355Z,5.70
2017-11-19T10:10:19.793Z,5.60
2017-11-19T10:12:47.283Z,5.70
2017-11-19T10:15:14.721Z,5.60
2017-11-19T10:17:42.178Z,5.60
2017-11-19T10:20:09.620Z,5.80
2017-11-19T10:22:37.077Z,6.00
2017-11-19T10:25:04.518Z,6.00
2017-11-19T10:27:31.962Z,6.00
2017-11-19T10:30:00.182Z,6.30
2017-11-19T10:32:27.759Z,6.30
2017-11-19T10:34:55.214Z,6.40
2017-11-19T10:37:22.649Z,6.50
2017-11-19T10:39:50.118Z,6.60
2017-11-19T10:42:17.573Z,6.60
2017-11-19T10:44:45.023Z,6.60
2017-11-19T10:47:12.466Z,6.80
2017-11-19T10:49:39.920Z,6.80
2017-11-19T10:52:07.404Z,6.80
2017-11-19T10:54:34.855Z,6.90
2017-11-19T10:57:02.311Z,6.90
2017-11-19T10:59:29.779Z,7.10
2017-11-19T11:01:57.219Z,7.10
2017-11-19T11:04:24.674Z,7.00
2017-11-19T11:06:52.119Z,7.10
2017-11-19T11:09:19.567Z,7.00
2017-11-19T11:11:47.061Z,7.10
2017-11-19T11:14:14.514Z,7.10
2017-11-19T11:16:41.960Z,7.30
2017-11-19T11:19:09.415Z,7.50
2017-11-19T11:21:36.887Z,7.60
2017-11-19T11:24:04.339Z,7.80
2017-11-19T11:26:31.787Z,7.90
2017-11-19T11:28:59.250Z,7.90
2017-11-19T11:31:26.696Z,7.90
2017-11-19T11:33:54.152Z,8.20
2017-11-19T11:36:21.602Z,8.10
2017-11-19T11:38:49.055Z,8.10
2017-11-19T11:41:16.505Z,8.00
2017-11-19T11:43:43.947Z,7.80
2017-11-19T11:46:11.455Z,7.80
2017-11-19T11:48:39.007Z,7.70
2017-11-19T11:51:06.468Z,7.70
2017-11-19T11:53:34.693Z,8.30
2017-11-19T11:56:03.021Z,8.70
2017-11-19T11:58:30.462Z,8.70
2017-11-19T12:00:57.920Z,8.60
2017-11-19T12:03:25.371Z,8.30
2017-11-19T12:05:52.830Z,8.20
2017-11-19T12:08:20.283Z,8.30
2017-11-19T12:10:47.742Z,7.90
2017-11-19T12:13:15.215Z,7.70
2017-11-19T12:15:42.778Z,7.60
2017-11-19T12:18:10.238Z,7.40
2017-11-19T12:20:37.699Z,7.50
2017-11-19T12:23:05.146Z,7.60
2017-11-19T12:25:32.702Z,7.60
2017-11-19T12:28:00.150Z,7.60
2017-11-19T12:30:27.611Z,7.60
2017-11-19T12:32:55.060Z,7.70
2017-11-19T12:35:22.541Z,7.80
2017-11-19T12:37:49.988Z,7.60
2017-11-19T12:40:17.442Z,7.30
2017-11-19T12:42:45.000Z,7.20
2017-11-19T12:45:12.454Z,7.20
2017-11-19T12:47:39.900Z,7.20
2017-11-19T12:50:07.353Z,7.20
2017-11-19T12:52:34.817Z,7.10
2017-11-19T12:55:02.255Z,7.10
2017-11-19T12:57:29.733Z,7.00
2017-11-19T12:59:57.155Z,6.90
2017-11-19T13:02:24.611Z,6.90
2017-11-19T13:04:52.056Z,7.00
2017-11-19T13:07:20.279Z,7.00
2017-11-19T13:09:47.719Z,7.00
2017-11-19T13:12:15.182Z,6.80
2017-11-19T13:14:42.653Z,6.90
2017-11-19T13:17:10.114Z,7.00
2017-11-19T13:19:37.566Z,6.90
2017-11-19T13:22:05.122Z,7.00
2017-11-19T13:24:32.567Z,6.90
2017-11-19T13:27:00.032Z,6.90
2017-11-19T13:29:27.471Z,6.90
2017-11-19T13:31:54.928Z,6.90
2017-11-19T13:34:22.413Z,6.90
2017-11-19T13:36:49.875Z,6.90
2017-11-19T13:39:17.326Z,6.90
2017-11-19T13:41:44.778Z,6.90
2017-11-19T13:44:12.223Z,7.00
2017-11-19T13:46:39.680Z,7.10
2017-11-19T13:49:07.122Z,7.00
2017-11-19T13:51:34.580Z,7.10
2017-11-19T13:54:02.074Z,7.10
2017-11-19T13:56:29.623Z,7.00
2017-11-19T13:58:57.183Z,7.00
2017-11-19T14:01:24.631Z,7.00
2017-11-19T14:03:52.084Z,7.10
2017-11-19T14:06:19.646Z,7.00
2017-11-19T14:08:47.102Z,7.00
2017-11-19T14:11:14.538Z,6.90
2017-11-19T14:13:41.996Z,6.90
2017-11-19T14:16:09.440Z,6.90
2017-11-19T14:18:36.886Z,6.90
2017-11-19T14:21:04.327Z,6.90
2017-11-19T14:23:32.567Z,6.80
2017-11-19T14:26:00.009Z,6.70
2017-11-19T14:28:27.468Z,6.80
2017-11-19T14:30:54.907Z,6.70
2017-11-19T14:33:22.398Z,6.70
2017-11-19T14:35:49.848Z,6.70
2017-11-19T14:38:17.406Z,6.70
2017-11-19T14:40:44.854Z,6.60
2017-11-19T14:43:12.303Z,6.50
2017-11-19T14:45:39.779Z,6.40
2017-11-19T14:48:07.235Z,6.40
2017-11-19T14:50:34.799Z,6.50
2017-11-19T14:53:02.251Z,6.50
2017-11-19T14:55:29.708Z,6.40
2017-11-19T14:57:57.154Z,6.50
2017-11-19T15:00:24.597Z,6.40
2017-11-19T15:02:52.047Z,6.40
2017-11-19T15:05:19.495Z,6.30
2017-11-19T15:07:46.944Z,6.30
2017-11-19T15:10:14.390Z,6.20
2017-11-19T15:12:42.612Z,6.10
2017-11-19T15:15:10.052Z,6.00
2017-11-19T15:17:37.522Z,6.10
2017-11-19T15:20:04.963Z,6.10
2017-11-19T15:22:32.418Z,6.10
2017-11-19T15:24:59.878Z,6.20
2017-11-19T15:27:27.329Z,6.20
2017-11-19T15:29:54.785Z,6.20
2017-11-19T15:32:22.220Z,6.10
2017-11-19T15:34:50.434Z,5.90
2017-11-19T15:37:17.883Z,5.90
2017-11-19T15:39:45.344Z,5.80
2017-11-19T15:42:12.770Z,5.60
2017-11-19T15:44:40.269Z,5.70
2017-11-19T15:47:07.718Z,5.60
2017-11-19T15:49:35.171Z,5.60
2017-11-19T15:52:02.617Z,5.70
2017-11-19T15:54:30.103Z,5.80
2017-11-19T15:56:57.543Z,5.80
2017-11-19T15:59:25.003Z,5.80
2017-11-19T16:01:52.455Z,5.90
2017-11-19T16:04:19.901Z,5.80
2017-11-19T16:06:47.343Z,5.80
2017-11-19T16:09:14.839Z,5.70
2017-11-19T16:11:42.284Z,5.70
2017-11-19T16:14:09.735Z,5.60
2017-11-19T16:16:37.177Z,5.60
2017-11-19T16:19:04.632Z,5.60
2017-11-19T16:21:32.076Z,5.70
2017-11-19T16:23:59.537Z,5.60
2017-11-19T16:26:26.975Z,5.70
2017-11-19T16:28:55.195Z,5.60
2017-11-19T16:31:22.659Z,5.60
2017-11-19T16:33:50.097Z,5.70
2017-11-19T16:36:17.549Z,5.70
2017-11-19T16:38:44.987Z,5.80
2017-11-19T16:41:12.489Z,5.70
2017-11-19T16:43:39.936Z,5.80
2017-11-19T16:46:07.388Z,5.70
2017-11-19T16:48:34.835Z,5.70
2017-11-19T16:51:02.292Z,5.60
2017-11-19T16:53:29.730Z,5.50
2017-11-19T16:55:57.179Z,5.50
2017-11-19T16:58:25.393Z,5.50
2017-11-19T17:00:52.857Z,5.40
2017-11-19T17:03:20.290Z,5.50
2017-11-19T17:05:47.751Z,5.50
2017-11-19T17:08:15.190Z,5.50
2017-11-19T17:10:42.648Z,5.60
2017-11-19T17:13:10.079Z,5.60
2017-11-19T17:15:38.318Z,5.60
2017-11-19T17:18:05.766Z,5.60
2017-11-19T17:20:33.329Z,5.60
2017-11-19T17:23:00.798Z,5.60
2017-11-19T17:25:28.350Z,5.60
2017-11-19T17:27:55.794Z,5.60
2017-11-19T17:30:23.250Z,5.60
2017-11-19T17:32:50.695Z,5.60
2017-11-19T17:35:18.142Z,5.70
2017-11-19T17:37:45.638Z,5.70
2017-11-19T17:40:13.099Z,5.70
2017-11-19T17:42:40.546Z,5.60
2017-11-19T17:45:07.990Z,5.40
2017-11-19T17:47:35.444Z,5.50
2017-11-19T17:50:02.887Z,5.40
2017-11-19T17:52:30.344Z,5.30
2017-11-19T17:54:57.826Z,5.30
2017-11-19T17:57:25.274Z,5.40
2017-11-19T17:59:52.714Z,5.30
2017-11-19T18:02:20.168Z,5.30
2017-11-19T18:04:47.607Z,5.30
2017-11-19T18:07:15.115Z,5.30
2017-11-19T18:09:42.550Z,5.30
2017-11-19T18:12:09.998Z,5.30
2017-11-19T18:14:37.483Z,5.30
2017-11-19T18:17:04.938Z,5.40
2017-11-19T18:19:32.379Z,5.40
2017-11-19T18:21:59.833Z,5.50
2017-11-19T18:24:27.280Z,5.60
2017-11-19T18:26:54.735Z,5.50
2017-11-19T18:29:22.166Z,5.40
2017-11-19T18:31:50.378Z,5.60
2017-11-19T18:34:17.821Z,5.50
2017-11-19T18:36:45.280Z,5.60
2017-11-19T18:39:12.756Z,5.60
2017-11-19T18:41:40.195Z,5.60
2017-11-19T18:44:07.674Z,5.60
2017-11-19T18:46:35.129Z,5.50
2017-11-19T18:49:02.591Z,5.60
2017-11-19T18:51:30.056Z,5.60
2017-11-19T18:53:57.495Z,5.60
2017-11-19T18:56:24.939Z,5.60
2017-11-19T18:58:52.389Z,5.60
2017-11-19T19:01:19.834Z,5.60
2017-11-19T19:03:47.281Z,5.50
2017-11-19T19:06:14.722Z,5.40
2017-11-19T19:08:42.943Z,5.20
2017-11-19T19:11:10.390Z,5.20
2017-11-19T19:13:37.843Z,5.20
2017-11-19T19:16:05.279Z,5.10
2017-11-19T19:18:32.785Z,5.10
2017-11-19T19:21:00.355Z,5.20
2017-11-19T19:23:27.790Z,5.20
2017-11-19T19:25:55.241Z,5.20
2017-11-19T19:28:22.717Z,5.10
2017-11-19T19:30:50.158Z,5.10
2017-11-19T19:33:17.606Z,5.30
2017-11-19T19:35:45.056Z,5.40
2017-11-19T19:38:12.545Z,5.40
2017-11-19T19:40:39.982Z,5.40
2017-11-19T19:43:07.539Z,5.50
2017-11-19T19:45:34.986Z,5.50
2017-11-19T19:48:02.444Z,5.40
2017-11-19T19:50:29.930Z,5.50
2017-11-19T19:52:57.482Z,5.50
2017-11-19T19:55:24.927Z,5.60
2017-11-19T19:57:52.375Z,5.50
2017-11-19T20:00:19.854Z,5.50
2017-11-19T20:02:47.305Z,5.50
2017-11-19T20:05:14.750Z,5.60
2017-11-19T20:07:42.203Z,5.60
2017-11-19T20:10:09.651Z,5.60
2017-11-19T20:12:37.098Z,5.60
2017-11-19T20:15:05.968Z,5.60
2017-11-19T20:17:34.171Z,5.60
2017-11-19T20:20:01.658Z,5.60
2017-11-19T20:22:29.099Z,5.60
2017-11-19T20:24:56.561Z,5.70
2017-11-19T20:27:23.999Z,5.60
2017-11-19T20:29:51.454Z,5.60
2017-11-19T20:32:18.899Z,5.60
2017-11-19T20:34:46.346Z,5.60
2017-11-19T20:37:13.790Z,5.60
2017-11-19T20:39:42.019Z,5.60
2017-11-19T20:42:09.454Z,5.60
2017-11-19T20:44:36.910Z,5.60
2017-11-19T20:47:04.365Z,5.70
2017-11-19T20:49:31.882Z,5.70
2017-11-19T20:52:00.132Z,5.60
2017-11-19T20:54:27.587Z,5.60
2017-11-19T20:56:55.047Z,5.60
2017-11-19T20:59:22.602Z,5.60
2017-11-19T21:01:50.046Z,5.60
2017-11-19T21:04:17.512Z,5.60
2017-11-19T21:06:44.970Z,5.50
2017-11-19T21:09:12.420Z,5.50
2017-11-19T21:11:39.882Z,5.50
2017-11-19T21:14:07.337Z,5.60
2017-11-19T21:16:34.774Z,5.60
2017-11-19T21:19:02.225Z,5.50
2017-11-19T21:21:29.709Z,5.50
2017-11-19T21:23:57.155Z,5.50
2017-11-19T21:26:24.608Z,5.40
2017-11-19T21:28:52.051Z,5.40
2017-11-19T21:31:19.506Z,5.40
2017-11-19T21:33:46.952Z,5.40
2017-11-19T21:36:14.406Z,5.40
2017-11-19T21:38:41.914Z,5.50
2017-11-19T21:41:09.361Z,5.40
2017-11-19T21:43:36.809Z,5.40
2017-11-19T21:46:04.256Z,5.30
2017-11-19T21:48:31.694Z,5.40
2017-11-19T21:50:59.147Z,5.30
2017-11-19T21:53:26.591Z,5.30
2017-11-19T21:55:54.806Z,5.20
2017-11-19T21:58:22.251Z,5.20
2017-11-19T22:02:36.934Z,4.90
2017-11-19T22:05:04.388Z,5.00
2017-11-19T22:07:31.828Z,4.90
2017-11-19T22:09:59.313Z,4.80
2017-11-19T22:12:26.776Z,4.80
2017-11-19T22:14:54.228Z,4.90
2017-11-19T22:17:21.675Z,4.90
2017-11-19T22:19:49.115Z,5.00
2017-11-19T22:22:16.570Z,5.10
2017-11-19T22:24:44.009Z,5.10
2017-11-19T22:27:11.463Z,5.10
2017-11-19T22:29:38.966Z,5.10
2017-11-19T22:32:06.527Z,5.20
2017-11-19T22:34:33.966Z,5.30
2017-11-19T22:37:01.443Z,5.20
2017-11-19T22:39:28.999Z,5.30
2017-11-19T22:41:56.452Z,5.30
2017-11-19T22:44:23.898Z,5.20
2017-11-19T22:46:51.370Z,5.20
2017-11-19T22:49:18.814Z,5.30
2017-11-19T22:51:46.267Z,5.30
2017-11-19T22:54:13.710Z,5.40
2017-11-19T22:56:41.168Z,5.30
2017-11-19T22:59:08.606Z,5.30
2017-11-19T23:01:36.107Z,5.30
2017-11-19T23:04:03.554Z,5.30
2017-11-19T23:06:31.004Z,5.20
2017-11-19T23:08:58.479Z,5.20
2017-11-19T23:11:25.931Z,5.20
2017-11-19T23:13:53.394Z,5.30
2017-11-19T23:16:20.850Z,5.30
2017-11-19T23:18:48.406Z,5.20
2017-11-19T23:21:15.856Z,5.20
2017-11-19T23:23:43.299Z,5.20
2017-11-19T23:26:10.746Z,5.10
2017-11-19T23:28:38.202Z,5.10
2017-11-19T23:31:05.639Z,5.10
2017-11-19T23:33:33.148Z,5.00
2017-11-19T23:36:00.601Z,5.10
2017-11-19T23:38:28.164Z,5.10
2017-11-19T23:40:55.602Z,5.10
2017-11-19T23:43:23.058Z,5.00
2017-11-19T23:45:50.508Z,5.00
2017-11-19T23:48:17.950Z,4.90
2017-11-19T23:50:45.395Z,5.00
2017-11-19T23:53:12.846Z,4.90
2017-11-19T23:55:41.059Z,4.90
2017-11-19T23:58:08.506Z,4.80
